createdAt,value
2019-01-09T00:01:35.692Z,9.60
2019-01-09T00:04:05.038Z,11.83
2019-01-09T00:06:34.438Z,6.00
2019-01-09T00:09:06.552Z,6.33
2019-01-09T00:11:35.934Z,4.93
2019-01-09T00:14:05.570Z,5.80
2019-01-09T00:16:34.902Z,11.23
2019-01-09T00:19:04.290Z,6.90
2019-01-09T00:21:33.675Z,4.83
2019-01-09T00:24:02.947Z,8.10
2019-01-09T00:26:32.236Z,3.77
2019-01-09T00:29:01.459Z,3.57
2019-01-09T00:31:30.765Z,3.47
2019-01-09T00:34:00.138Z,3.23
2019-01-09T00:36:29.490Z,2.97
2019-01-09T00:38:58.863Z,2.60
2019-01-09T00:41:28.221Z,2.97
2019-01-09T00:43:57.608Z,2.40
2019-01-09T00:46:26.967Z,2.77
2019-01-09T00:48:56.348Z,2.13
2019-01-09T00:51:25.716Z,2.33
2019-01-09T00:53:55.136Z,2.30
2019-01-09T00:56:24.462Z,2.47
2019-01-09T00:58:53.838Z,1.83
2019-01-09T01:01:23.280Z,1.90
2019-01-09T01:04:28.701Z,1.77
2019-01-09T01:07:37.809Z,1.80
2019-01-09T01:10:51.329Z,1.93
2019-01-09T01:13:53.006Z,2.13
2019-01-09T01:17:11.545Z,1.70
2019-01-09T01:20:23.889Z,2.13
2019-01-09T01:23:36.315Z,2.07
2019-01-09T01:26:42.071Z,2.07
2019-01-09T01:30:03.631Z,1.90
2019-01-09T01:33:23.056Z,2.40
2019-01-09T01:36:36.719Z,2.20
2019-01-09T01:39:36.690Z,2.23
2019-01-09T01:42:48.959Z,2.40
2019-01-09T01:46:01.682Z,2.10
2019-01-09T01:49:14.879Z,2.57
2019-01-09T01:52:13.550Z,2.80
2019-01-09T01:55:31.881Z,1.90
2019-01-09T01:58:44.373Z,2.37
2019-01-09T02:01:57.128Z,2.57
2019-01-09T02:05:13.913Z,2.50
2019-01-09T02:08:20.519Z,2.17
2019-01-09T02:11:30.790Z,2.33
2019-01-09T02:14:50.234Z,2.50
2019-01-09T02:18:00.090Z,2.30
2019-01-09T02:21:00.750Z,2.80
2019-01-09T02:23:41.681Z,2.23
2019-01-09T02:26:56.189Z,2.67
2019-01-09T02:30:18.919Z,2.33
2019-01-09T02:32:48.357Z,2.07
2019-01-09T02:35:17.799Z,2.00
2019-01-09T02:37:47.249Z,2.10
2019-01-09T02:40:16.640Z,1.97
2019-01-09T02:42:46.013Z,2.00
2019-01-09T02:45:15.448Z,2.20
2019-01-09T02:47:44.726Z,1.87
2019-01-09T02:50:14.019Z,2.30
2019-01-09T02:52:43.429Z,2.13
2019-01-09T02:55:12.719Z,1.80
2019-01-09T02:57:42.149Z,1.90
2019-01-09T03:00:12.651Z,1.83
2019-01-09T03:02:41.884Z,1.70
2019-01-09T03:05:11.344Z,1.77
2019-01-09T03:07:40.702Z,1.63
2019-01-09T03:10:10.239Z,1.80
2019-01-09T03:12:39.568Z,1.90
2019-01-09T03:15:09.050Z,1.80
2019-01-09T03:17:38.410Z,2.07
2019-01-09T03:20:07.824Z,1.70
2019-01-09T03:22:37.178Z,2.07
2019-01-09T03:25:06.853Z,1.80
2019-01-09T03:27:36.274Z,1.73
2019-01-09T03:30:06.279Z,2.13
2019-01-09T03:32:35.752Z,1.90
2019-01-09T03:35:05.387Z,1.90
2019-01-09T03:37:34.780Z,1.80
2019-01-09T03:40:04.267Z,2.00
2019-01-09T03:42:33.871Z,1.73
2019-01-09T03:45:03.193Z,2.27
2019-01-09T03:47:32.569Z,3.27
2019-01-09T03:50:01.918Z,2.40
2019-01-09T03:52:31.267Z,1.50
2019-01-09T03:55:00.702Z,1.40
2019-01-09T03:57:30.221Z,1.60
2019-01-09T03:59:59.590Z,1.80
2019-01-09T04:02:28.975Z,1.90
2019-01-09T04:04:58.320Z,1.50
2019-01-09T04:07:27.612Z,1.40
2019-01-09T04:09:56.980Z,1.83
2019-01-09T04:12:26.289Z,1.50
2019-01-09T04:14:55.666Z,1.60
2019-01-09T04:17:25.061Z,1.87
2019-01-09T04:19:54.400Z,1.70
2019-01-09T04:22:23.786Z,1.50
2019-01-09T04:24:53.289Z,1.40
2019-01-09T04:27:22.683Z,1.63
2019-01-09T04:29:52.117Z,1.57
2019-01-09T04:32:21.503Z,1.40
2019-01-09T04:34:50.818Z,1.77
2019-01-09T04:37:20.206Z,1.83
2019-01-09T04:39:49.430Z,1.50
2019-01-09T04:42:18.740Z,2.03
2019-01-09T04:44:47.992Z,1.50
2019-01-09T04:47:17.298Z,2.00
2019-01-09T04:49:46.651Z,1.80
2019-01-09T04:52:16.031Z,1.97
2019-01-09T04:54:45.341Z,2.27
2019-01-09T04:57:14.610Z,1.97
2019-01-09T04:59:43.989Z,1.80
2019-01-09T05:02:13.328Z,2.50
2019-01-09T05:04:42.691Z,3.40
2019-01-09T05:07:12.094Z,4.50
2019-01-09T05:09:41.450Z,4.70
2019-01-09T05:12:10.806Z,4.93
2019-01-09T05:14:40.159Z,5.00
2019-01-09T05:17:09.465Z,6.07
2019-01-09T05:19:38.830Z,6.83
2019-01-09T05:22:08.249Z,7.10
2019-01-09T05:24:37.667Z,7.00
2019-01-09T05:27:07.066Z,7.27
2019-01-09T05:29:36.821Z,6.73
2019-01-09T05:32:06.187Z,5.87
2019-01-09T05:34:35.590Z,4.23
2019-01-09T05:37:09.721Z,4.00
2019-01-09T05:39:39.855Z,3.57
2019-01-09T05:42:07.036Z,4.07
2019-01-09T05:44:36.395Z,3.73
2019-01-09T05:47:05.666Z,2.90
2019-01-09T05:49:35.087Z,2.90
2019-01-09T05:52:04.451Z,3.43
2019-01-09T05:54:33.892Z,2.97
2019-01-09T05:57:03.231Z,3.07
2019-01-09T05:59:32.629Z,3.13
2019-01-09T06:02:01.985Z,2.70
2019-01-09T06:04:31.329Z,2.43
2019-01-09T06:07:00.767Z,2.90
2019-01-09T06:09:30.114Z,2.73
2019-01-09T06:11:59.812Z,2.80
2019-01-09T06:14:29.366Z,3.20
2019-01-09T06:16:58.700Z,3.60
2019-01-09T06:19:28.097Z,3.73
2019-01-09T06:21:57.486Z,3.27
2019-01-09T06:24:26.891Z,3.10
2019-01-09T06:26:56.153Z,2.77
2019-01-09T06:29:25.454Z,2.57
2019-01-09T06:31:54.737Z,4.03
2019-01-09T06:34:24.126Z,3.70
2019-01-09T06:36:53.479Z,3.93
2019-01-09T06:39:22.813Z,3.43
2019-01-09T06:41:52.231Z,3.13
2019-01-09T06:44:22.767Z,2.93
2019-01-09T06:46:52.326Z,2.73
2019-01-09T06:49:21.730Z,3.37
2019-01-09T06:51:51.061Z,3.00
2019-01-09T06:54:20.469Z,3.67
2019-01-09T06:56:49.805Z,3.50
2019-01-09T06:59:19.203Z,2.83
2019-01-09T07:01:48.635Z,3.10
2019-01-09T07:04:18.038Z,2.63
2019-01-09T07:06:47.440Z,2.60
2019-01-09T07:09:16.824Z,3.23
2019-01-09T07:11:46.252Z,2.77
2019-01-09T07:14:15.656Z,2.73
2019-01-09T07:16:45.050Z,3.20
2019-01-09T07:19:14.430Z,3.13
2019-01-09T07:21:45.579Z,2.73
2019-01-09T07:24:14.883Z,2.53
2019-01-09T07:26:44.191Z,2.70
2019-01-09T07:29:13.477Z,2.67
2019-01-09T07:31:42.847Z,2.60
2019-01-09T07:34:12.173Z,3.13
2019-01-09T07:36:41.469Z,2.57
2019-01-09T07:39:10.915Z,2.53
2019-01-09T07:41:40.235Z,2.30
2019-01-09T07:44:09.524Z,2.50
2019-01-09T07:46:39.652Z,2.70
2019-01-09T07:49:09.118Z,4.03
2019-01-09T07:51:38.523Z,4.57
2019-01-09T07:54:07.922Z,4.07
2019-01-09T07:56:37.318Z,4.40
2019-01-09T07:59:06.689Z,3.77
2019-01-09T08:01:36.096Z,4.23
2019-01-09T08:04:05.475Z,5.17
2019-01-09T08:06:34.885Z,5.67
2019-01-09T08:09:05.563Z,5.80
2019-01-09T08:11:34.958Z,10.83
2019-01-09T08:14:04.347Z,5.47
2019-01-09T08:16:33.779Z,5.03
2019-01-09T08:19:03.100Z,6.37
2019-01-09T08:21:32.458Z,4.90
2019-01-09T08:24:01.860Z,4.47
2019-01-09T08:26:31.332Z,3.20
2019-01-09T08:29:00.794Z,3.87
2019-01-09T08:31:30.192Z,3.97
2019-01-09T08:33:59.580Z,4.93
2019-01-09T08:36:28.927Z,3.53
2019-01-09T08:38:58.264Z,5.80
2019-01-09T08:41:27.864Z,4.83
2019-01-09T08:43:57.237Z,5.13
2019-01-09T08:46:26.685Z,5.87
2019-01-09T08:48:56.123Z,7.07
2019-01-09T08:51:25.516Z,6.90
2019-01-09T08:53:54.907Z,6.13
2019-01-09T08:56:24.229Z,6.47
2019-01-09T08:58:53.610Z,5.10
2019-01-09T09:01:22.919Z,5.83
2019-01-09T09:03:52.355Z,4.50
2019-01-09T09:06:21.773Z,5.10
2019-01-09T09:08:52.031Z,7.23
2019-01-09T09:11:21.465Z,5.57
2019-01-09T09:13:50.819Z,4.20
2019-01-09T09:16:20.059Z,4.10
2019-01-09T09:18:49.480Z,4.57
2019-01-09T09:21:18.844Z,4.23
2019-01-09T09:23:48.236Z,4.30
2019-01-09T09:26:17.658Z,4.43
2019-01-09T09:28:49.886Z,4.70
2019-01-09T09:31:19.142Z,3.97
2019-01-09T09:33:48.639Z,4.43
2019-01-09T09:36:18.031Z,4.50
2019-01-09T09:38:47.350Z,4.80
2019-01-09T09:41:16.739Z,5.37
2019-01-09T09:43:45.990Z,4.37
2019-01-09T09:46:18.120Z,3.90
2019-01-09T09:48:47.499Z,4.03
2019-01-09T09:51:16.831Z,4.27
2019-01-09T09:53:46.201Z,3.73
2019-01-09T09:56:15.519Z,3.60
2019-01-09T09:58:44.801Z,4.37
2019-01-09T10:01:14.185Z,3.57
2019-01-09T10:03:43.456Z,4.13
2019-01-09T10:06:12.782Z,4.17
2019-01-09T10:08:42.157Z,3.17
2019-01-09T10:11:11.496Z,4.47
2019-01-09T10:13:40.920Z,3.93
2019-01-09T10:16:10.293Z,4.00
2019-01-09T10:18:39.663Z,3.83
2019-01-09T10:21:09.047Z,3.77
2019-01-09T10:23:38.452Z,4.33
2019-01-09T10:26:07.893Z,3.97
2019-01-09T10:28:37.227Z,3.50
2019-01-09T10:31:06.728Z,4.23
2019-01-09T10:33:36.182Z,3.97
2019-01-09T10:36:05.882Z,4.23
2019-01-09T10:38:38.190Z,3.83
2019-01-09T10:41:06.321Z,3.80
2019-01-09T10:43:36.180Z,4.20
2019-01-09T10:46:05.710Z,4.77
2019-01-09T10:48:35.418Z,4.63
2019-01-09T10:51:04.866Z,4.07
2019-01-09T10:53:34.198Z,3.77
2019-01-09T10:56:03.606Z,3.23
2019-01-09T10:58:32.980Z,3.73
2019-01-09T11:01:02.419Z,3.10
2019-01-09T11:03:31.824Z,2.90
2019-01-09T11:06:01.282Z,2.67
2019-01-09T11:08:30.637Z,2.83
2019-01-09T11:11:00.017Z,3.20
2019-01-09T11:13:29.451Z,3.37
2019-01-09T11:15:58.892Z,3.37
2019-01-09T11:18:28.404Z,2.63
2019-01-09T11:20:58.247Z,3.00
2019-01-09T11:23:27.663Z,4.03
2019-01-09T11:25:57.451Z,2.60
2019-01-09T11:28:26.843Z,2.60
2019-01-09T11:30:56.284Z,2.53
2019-01-09T11:33:25.695Z,2.63
2019-01-09T11:35:55.013Z,2.57
2019-01-09T11:38:24.304Z,2.30
2019-01-09T11:40:53.780Z,2.30
2019-01-09T11:43:23.076Z,2.03
2019-01-09T11:45:52.462Z,2.30
2019-01-09T11:48:21.990Z,3.07
2019-01-09T11:50:51.362Z,3.17
2019-01-09T11:53:20.749Z,2.73
2019-01-09T11:55:50.133Z,2.70
2019-01-09T11:58:19.437Z,2.63
2019-01-09T12:00:48.808Z,2.70
2019-01-09T12:03:18.627Z,2.50
2019-01-09T12:05:48.129Z,3.27
2019-01-09T12:08:17.577Z,3.30
2019-01-09T12:10:47.012Z,2.40
2019-01-09T12:13:16.411Z,2.83
2019-01-09T12:15:45.824Z,4.50
2019-01-09T12:18:15.166Z,3.40
2019-01-09T12:20:44.509Z,3.30
2019-01-09T12:23:13.914Z,3.07
2019-01-09T12:25:43.228Z,2.67
2019-01-09T12:28:12.460Z,3.30
2019-01-09T12:30:42.911Z,1.73
2019-01-09T12:33:12.360Z,2.00
2019-01-09T12:35:41.742Z,2.30
2019-01-09T12:38:11.119Z,1.80
2019-01-09T12:40:40.375Z,1.97
2019-01-09T12:43:09.757Z,2.27
2019-01-09T12:45:39.167Z,2.80
2019-01-09T12:48:08.613Z,2.13
2019-01-09T12:50:38.013Z,2.43
2019-01-09T12:53:07.887Z,2.77
2019-01-09T12:55:37.296Z,2.57
2019-01-09T12:58:06.823Z,2.30
2019-01-09T13:00:36.193Z,2.20
2019-01-09T13:03:08.581Z,2.70
2019-01-09T13:05:37.948Z,2.40
2019-01-09T13:08:07.296Z,2.37
2019-01-09T13:10:36.684Z,2.20
2019-01-09T13:13:06.064Z,2.07
2019-01-09T13:15:35.441Z,2.17
2019-01-09T13:18:05.382Z,2.50
2019-01-09T13:20:34.874Z,2.07
2019-01-09T13:23:04.259Z,1.70
2019-01-09T13:25:33.610Z,1.90
2019-01-09T13:28:03.896Z,1.60
2019-01-09T13:30:33.296Z,1.60
2019-01-09T13:33:02.601Z,1.90
2019-01-09T13:35:32.035Z,1.90
2019-01-09T13:38:01.469Z,2.07
2019-01-09T13:40:30.893Z,1.80
2019-01-09T13:43:00.269Z,1.67
2019-01-09T13:45:29.788Z,1.47
2019-01-09T13:48:00.243Z,1.83
2019-01-09T13:50:29.613Z,2.10
2019-01-09T13:52:59.087Z,2.13
2019-01-09T13:55:28.859Z,2.00
2019-01-09T13:57:58.244Z,1.50
2019-01-09T14:00:27.584Z,1.73
2019-01-09T14:02:56.884Z,1.63
2019-01-09T14:05:26.202Z,1.43
2019-01-09T14:07:55.580Z,1.63
2019-01-09T14:10:26.975Z,1.60
2019-01-09T14:12:56.415Z,1.70
2019-01-09T14:15:25.706Z,2.23
2019-01-09T14:17:55.078Z,2.03
2019-01-09T14:20:24.471Z,1.70
2019-01-09T14:22:54.189Z,1.90
2019-01-09T14:25:24.500Z,1.70
2019-01-09T14:27:54.717Z,1.83
2019-01-09T14:30:27.473Z,1.70
2019-01-09T14:32:56.941Z,1.50
2019-01-09T14:35:26.447Z,1.60
2019-01-09T14:37:55.851Z,1.77
2019-01-09T14:40:25.276Z,1.93
2019-01-09T14:42:55.170Z,1.53
2019-01-09T14:45:24.626Z,1.90
2019-01-09T14:47:54.011Z,1.80
2019-01-09T14:50:24.796Z,1.73
2019-01-09T14:52:54.381Z,1.70
2019-01-09T14:55:23.874Z,1.80
2019-01-09T14:57:53.472Z,2.30
2019-01-09T15:00:24.778Z,2.00
2019-01-09T15:02:54.211Z,2.00
2019-01-09T15:05:24.067Z,2.13
2019-01-09T15:07:53.475Z,1.90
2019-01-09T15:10:28.031Z,2.13
2019-01-09T15:12:57.611Z,2.10
2019-01-09T15:15:27.582Z,3.13
2019-01-09T15:17:56.957Z,4.20
2019-01-09T15:20:26.414Z,3.90
2019-01-09T15:22:55.858Z,2.67
2019-01-09T15:25:25.162Z,1.93
2019-01-09T15:27:54.576Z,3.47
2019-01-09T15:30:28.989Z,3.10
2019-01-09T15:32:58.397Z,3.03
2019-01-09T15:35:27.860Z,4.10
2019-01-09T15:37:57.263Z,8.57
2019-01-09T15:40:28.494Z,2.30
2019-01-09T15:42:58.258Z,2.63
2019-01-09T15:45:27.760Z,3.37
2019-01-09T15:47:57.373Z,3.03
2019-01-09T15:50:27.212Z,3.80
2019-01-09T15:52:56.631Z,3.13
2019-01-09T15:55:26.098Z,2.60
2019-01-09T15:57:55.543Z,2.63
2019-01-09T16:00:27.447Z,2.77
2019-01-09T16:02:56.898Z,4.70
2019-01-09T16:05:26.272Z,3.80
2019-01-09T16:07:55.826Z,3.80
2019-01-09T16:10:25.212Z,2.57
2019-01-09T16:12:54.565Z,2.70
2019-01-09T16:15:23.987Z,2.93
2019-01-09T16:17:53.459Z,3.53
2019-01-09T16:20:22.836Z,2.80
2019-01-09T16:22:52.201Z,2.40
2019-01-09T16:25:21.618Z,2.93
2019-01-09T16:27:51.046Z,2.77
2019-01-09T16:30:59.512Z,2.43
2019-01-09T16:33:28.825Z,3.10
2019-01-09T16:35:58.255Z,2.50
2019-01-09T16:38:27.575Z,3.03
2019-01-09T16:40:56.952Z,2.60
2019-01-09T16:43:26.471Z,3.30
2019-01-09T16:45:55.853Z,1.93
2019-01-09T16:48:25.195Z,2.23
2019-01-09T16:50:54.541Z,2.50
2019-01-09T16:53:23.924Z,3.17
2019-01-09T16:55:53.835Z,2.60
2019-01-09T16:58:23.224Z,2.53
2019-01-09T17:00:52.710Z,3.13
2019-01-09T17:03:22.306Z,2.40
2019-01-09T17:05:51.895Z,2.30
2019-01-09T17:08:21.327Z,3.30
2019-01-09T17:10:50.858Z,3.97
2019-01-09T17:13:23.285Z,3.30
2019-01-09T17:15:52.668Z,2.70
2019-01-09T17:18:23.605Z,3.43
2019-01-09T17:20:53.093Z,2.47
2019-01-09T17:23:22.879Z,2.17
2019-01-09T17:25:52.195Z,2.47
2019-01-09T17:28:21.611Z,2.60
2019-01-09T17:30:51.072Z,2.27
2019-01-09T17:33:20.519Z,2.13
2019-01-09T17:35:50.185Z,3.30
2019-01-09T17:38:20.039Z,3.10
2019-01-09T17:40:49.455Z,3.50
2019-01-09T17:43:18.778Z,4.90
2019-01-09T17:45:50.598Z,3.00
2019-01-09T17:48:20.029Z,3.37
2019-01-09T17:50:50.262Z,2.87
2019-01-09T17:53:19.655Z,3.27
2019-01-09T17:55:49.104Z,5.37
2019-01-09T17:58:18.503Z,3.20
2019-01-09T18:00:48.201Z,3.47
2019-01-09T18:03:17.617Z,2.90
2019-01-09T18:05:46.972Z,2.80
2019-01-09T18:08:16.427Z,2.40
2019-01-09T18:10:50.280Z,2.40
2019-01-09T18:13:16.809Z,2.53
2019-01-09T18:15:46.683Z,2.60
2019-01-09T18:18:16.111Z,2.70
2019-01-09T18:20:45.889Z,4.43
2019-01-09T18:23:15.877Z,5.60
2019-01-09T18:25:45.272Z,3.40
2019-01-09T18:28:14.940Z,3.30
2019-01-09T18:30:51.198Z,3.23
2019-01-09T18:33:38.012Z,2.83
2019-01-09T18:36:40.500Z,4.10
2019-01-09T18:40:06.336Z,3.07
2019-01-09T18:43:02.555Z,3.40
2019-01-09T18:45:46.518Z,4.47
2019-01-09T18:48:53.911Z,4.37
2019-01-09T18:52:17.021Z,3.00
2019-01-09T18:54:46.403Z,5.73
2019-01-09T18:57:15.783Z,3.20
2019-01-09T18:59:45.166Z,2.87
2019-01-09T19:02:15.007Z,3.90
2019-01-09T19:04:44.475Z,3.13
2019-01-09T19:07:13.889Z,3.03
2019-01-09T19:09:43.402Z,3.00
2019-01-09T19:12:12.697Z,3.77
2019-01-09T19:14:42.121Z,3.40
2019-01-09T19:17:11.828Z,3.00
2019-01-09T19:19:41.277Z,3.67
2019-01-09T19:22:11.800Z,3.10
2019-01-09T19:24:41.245Z,3.50
2019-01-09T19:27:10.628Z,3.40
2019-01-09T19:29:40.329Z,3.20
2019-01-09T19:32:09.735Z,3.40
2019-01-09T19:34:39.522Z,3.03
2019-01-09T19:37:09.089Z,4.03
2019-01-09T19:39:39.005Z,3.40
2019-01-09T19:42:08.386Z,11.63
2019-01-09T19:44:37.747Z,5.10
2019-01-09T19:47:07.117Z,7.47
2019-01-09T19:49:36.563Z,10.27
2019-01-09T19:52:06.364Z,5.23
2019-01-09T19:54:35.777Z,10.50
2019-01-09T19:57:06.375Z,14.50
2019-01-09T19:59:35.735Z,19.20
2019-01-09T20:02:05.273Z,9.87
2019-01-09T20:04:34.736Z,18.50
2019-01-09T20:07:04.242Z,11.80
2019-01-09T20:09:33.661Z,19.50
2019-01-09T20:12:03.207Z,27.50
2019-01-09T20:14:32.618Z,11.23
2019-01-09T20:17:02.146Z,5.43
2019-01-09T20:19:31.519Z,6.10
2019-01-09T20:22:01.106Z,8.37
2019-01-09T20:24:30.430Z,10.07
2019-01-09T20:26:59.876Z,10.10
2019-01-09T20:29:29.263Z,7.67
2019-01-09T20:31:58.810Z,19.50
2019-01-09T20:34:28.267Z,8.47
2019-01-09T20:36:57.800Z,19.17
2019-01-09T20:39:27.236Z,6.23
2019-01-09T20:41:56.995Z,5.63
2019-01-09T20:44:26.463Z,4.97
2019-01-09T20:46:56.020Z,5.30
2019-01-09T20:49:25.855Z,17.37
2019-01-09T20:51:55.323Z,5.53
2019-01-09T20:54:24.792Z,3.70
2019-01-09T20:56:54.690Z,4.80
2019-01-09T20:59:24.354Z,4.73
2019-01-09T21:01:53.863Z,8.37
2019-01-09T21:04:23.330Z,6.37
2019-01-09T21:06:52.807Z,5.63
2019-01-09T21:09:22.157Z,4.90
2019-01-09T21:11:51.614Z,7.73
2019-01-09T21:14:21.264Z,8.53
2019-01-09T21:16:52.711Z,5.60
2019-01-09T21:19:29.524Z,7.43
2019-01-09T21:21:59.041Z,5.47
2019-01-09T21:24:28.997Z,9.40
2019-01-09T21:26:58.459Z,5.80
2019-01-09T21:29:27.798Z,5.43
2019-01-09T21:31:57.216Z,9.27
2019-01-09T21:34:26.609Z,10.93
2019-01-09T21:36:56.015Z,5.30
2019-01-09T21:39:26.280Z,7.37
2019-01-09T21:41:55.717Z,5.40
2019-01-09T21:44:25.124Z,5.23
2019-01-09T21:46:54.856Z,11.20
2019-01-09T21:49:24.371Z,4.80
2019-01-09T21:51:54.065Z,5.60
2019-01-09T21:54:23.482Z,7.13
2019-01-09T21:56:52.931Z,5.93
2019-01-09T21:59:23.340Z,10.50
2019-01-09T22:01:53.030Z,7.13
2019-01-09T22:04:22.404Z,5.87
2019-01-09T22:06:51.911Z,5.40
2019-01-09T22:09:21.292Z,8.57
2019-01-09T22:11:50.630Z,6.87
2019-01-09T22:14:19.960Z,5.23
2019-01-09T22:16:49.338Z,5.80
2019-01-09T22:19:18.739Z,4.90
2019-01-09T22:21:48.441Z,5.03
2019-01-09T22:24:18.164Z,7.47
2019-01-09T22:26:47.628Z,4.20
2019-01-09T22:29:16.916Z,3.67
2019-01-09T22:31:46.320Z,4.20
2019-01-09T22:34:15.708Z,4.70
2019-01-09T22:36:45.089Z,4.20
2019-01-09T22:39:14.856Z,3.90
2019-01-09T22:41:44.594Z,4.10
2019-01-09T22:44:14.373Z,4.53
2019-01-09T22:46:43.892Z,4.23
2019-01-09T22:49:13.334Z,4.80
2019-01-09T22:51:42.777Z,4.60
2019-01-09T22:54:12.206Z,4.67
2019-01-09T22:56:41.605Z,4.70
2019-01-09T22:59:11.004Z,4.27
2019-01-09T23:01:40.483Z,4.33
2019-01-09T23:04:10.232Z,3.70
2019-01-09T23:06:39.702Z,4.00
2019-01-09T23:09:09.806Z,4.10
2019-01-09T23:11:39.602Z,4.17
2019-01-09T23:14:09.326Z,6.10
2019-01-09T23:16:38.780Z,4.90
2019-01-09T23:19:08.249Z,7.27
2019-01-09T23:21:37.744Z,11.17
2019-01-09T23:24:07.655Z,7.77
2019-01-09T23:26:37.018Z,43.57
2019-01-09T23:29:06.433Z,17.27
2019-01-09T23:31:36.865Z,10.13
2019-01-09T23:34:06.537Z,6.50
2019-01-09T23:36:36.070Z,11.73
2019-01-09T23:39:09.655Z,8.20
2019-01-09T23:41:39.944Z,5.93
2019-01-09T23:44:09.748Z,4.57
2019-01-09T23:46:39.062Z,4.60
2019-01-09T23:49:08.840Z,4.07
2019-01-09T23:51:38.140Z,4.97
2019-01-09T23:54:07.522Z,4.13
2019-01-09T23:56:36.994Z,6.20
2019-01-09T23:59:06.401Z,7.60
